LaPlace, LA

7:21 AM CST on January 30, 2015 (GMT -0600)
KA5ZCI River Forest | Change Station
CLOSE
Current Station
Personal Weather Station
Location: Laplace, LA
Elevation: 6 ft
Nearby Weather Stations

Elev 6 ft 30.06 °N, 90.45 °W | Updated 0 second ago

Partly Cloudy
Partly Cloudy
45.1 °F
Feels Like 41 °F
N
6.9
Wind Variable Wind from NE
Gusts 6.9 mph

Today
High -- | Low -- °F
--% Chance of Precip.
Yesterday
High -- | Low -- °F
Precip. -- in
6:53 AM 5:37 PM
Waxing Gibbous, 82% visible
Pressure 30.36 in
Visibility 8.0 miles
Clouds Few 12000 ft
Mostly Cloudy 25000 ft
Windchill 41 °F
Dew Point 40 °F
Humidity 81%
Rainfall 0.00 in
Snow Depth Not available.
UV 0 out of 12
Pollen 8.60 out of 12
Air Quality Not available.
Flu Activity Not available.
METAR KMSY 301253Z 01015KT 8SM FEW120 BKN250 09/04 A3035 RMK AO2 SLP279 T00890039

More Conditions Fewer Conditions

Pressure 30.36 in
Visibility 8.0 miles
Clouds Few 12000 ft
Mostly Cloudy 25000 ft
Windchill 41 °F
Dew Point 40 °F
Humidity 81%
Rainfall 0.00 in
Snow Depth Not available.
UV 0 out of 12
Pollen 8.60 out of 12
Air Quality Not available.
Flu Activity Not available.
METAR KMSY 301253Z 01015KT 8SM FEW120 BKN250 09/04 A3035 RMK AO2 SLP279 T00890039

More Conditions Fewer Conditions

10-Day Weather Forecast

Almanac

Astronomy

Jan. 30, 2015 Rise Set
Actual Time
Civil Twilight
Nautical Twilight
Astronomical Twilight
Moon
Length of Visible Light
Length of Day
Tomorrow will be .
, % of the Moon is Illuminated

Today's Extremes

State Highs State Lows

Community

WunderPhotos

Upload Photos

1,791,749 photos uploaded!

WunderBlogs® & News

Nearby

Air Quality

  Air Quality AQ Index Pollutant
Not available.

Snow Depth

Station Depth Elevation

Earthquake Activity

City Distance Mag. Time & Date
Minimum magnitude displayed is 2.5.

Coastal Water Temperatures

Place Temperature

Nearby Weather Stations